Flight Track Log - Related Links

Times and Time Zones

All times are in EDT time to prevent confusion due to time zone crossing. See the ASQ4252 flight status page for this flight to view local times or setup timezone preferences in your user account.

Time Position Orientation Groundspeed Altitude Reporting Facility
EDT Latitude Longitude Course Direction KTS MPH feet Rate Location/Type
Sun 10:40:00 PM 29.8207 -90.6572 244° Southwest  Level FlightAware Approximate
Sun 10:41:00 PM 29.8064 -90.7682 257° West  Level FlightAware Approximate
Sun 10:42:00 PM 29.7843 -90.8787 257° West  Level FlightAware Approximate
Sun 10:43:00 PM 29.7608 -90.9889 256° West  Level FlightAware Approximate
Sun 10:44:00 PM 29.7372 -91.0989 256° West  Level FlightAware Approximate
Sun 10:45:00 PM 29.7110 -91.2082 255° West  Level FlightAware Approximate
Sun 10:46:00 PM 29.6857 -91.3177 255° West  Level FlightAware Approximate
Sun 10:47:00 PM 29.6624 -91.4277 260° West  Level FlightAware Approximate
Sun 10:48:00 PM 29.6453 -91.5392 260° West  Level FlightAware Approximate
Sun 10:49:00 PM 29.6266 -91.6504 257° West  Level FlightAware Approximate
Sun 10:50:00 PM 29.6045 -91.7607 257° West  Level FlightAware Approximate
Sun 10:51:00 PM 29.5675 -91.8650 240° Southwest  Level FlightAware Approximate
Sun 10:52:00 PM 29.5481 -91.9758 257° West  Level FlightAware Approximate
Sun 10:53:00 PM 29.5255 -92.0859 257° West  Level FlightAware Approximate
Sun 10:54:00 PM 29.5028 -92.1960 257° West  Level FlightAware Approximate
Sun 10:55:00 PM 29.4800 -92.3060 257° West  Level FlightAware Approximate
Sun 10:56:00 PM 29.4571 -92.4159 257° West  Level FlightAware Approximate
Sun 10:57:00 PM 29.4556 -92.5277 275° West  Level FlightAware Approximate
Sun 10:58:00 PM 29.4636 -92.6404 275° West  Level FlightAware Approximate
Sun 10:59:00 PM 29.4698 -92.7533 273° West  Level FlightAware Approximate
Sun 11:00:00 PM 29.4748 -92.8662 273° West  Level FlightAware Approximate
Sun 11:01:00 PM 29.4796 -92.9791 273° West  Level FlightAware Approximate
Sun 11:02:00 PM 29.4843 -93.0920 273° West  Level FlightAware Approximate
Sun 11:03:00 PM 29.4886 -93.2050 273° West  Level FlightAware Approximate
Sun 11:04:00 PM 29.4928 -93.3180 272° West  Level FlightAware Approximate
Sun 11:05:00 PM 29.4969 -93.4310 272° West  Level FlightAware Approximate
Sun 11:06:00 PM 29.5000 -93.5440 270° West  Level FlightAware Approximate
Sun 11:07:00 PM 29.5000 -93.6571 270° West  Level FlightAware Approximate
Sun 11:08:00 PM 29.5072 -93.7698 276° West  Level FlightAware Approximate
Sun 11:09:00 PM 29.5166 -93.8824 275° West  Level FlightAware Approximate
Sun 11:10:00 PM 29.5167 -93.9955 270° West  Level FlightAware Approximate
Sun 11:11:00 PM 29.5167 -94.1087 270° West  Level FlightAware Approximate
Sun 11:12:00 PM 29.5194 -94.2215 278° West  Level FlightAware Approximate
Sun 11:13:00 PM 29.5333 -94.3335 270° West  Level FlightAware Approximate
Sun 11:14:00 PM 29.5705 -94.4367 296° West  Level FlightAware Approximate
Sun 11:15:00 PM 29.6091 -94.5408 293° West  Level FlightAware Approximate
Sun 11:16:00 PM 29.6480 -94.6448 293° West  Level FlightAware Approximate
Sun 11:17:00 PM 29.6990 -94.7408 294° West  Level FlightAware Approximate
Sun 11:18:00 PM 29.7389 -94.8444 294° West  Level FlightAware Approximate
Sun 11:19:00 PM 29.7805 -94.9471 298° West  Level FlightAware Approximate
Sun 11:20:00 PM 29.8262 -95.0476 298° West  Level FlightAware Approximate
Sun 11:21:00 PM 29.8670 -95.1507 300° West  Level FlightAware Approximate
Sun 11:22:00 PM 29.9169 -95.2447 311° West  Level FlightAware Approximate
Sun 11:23:00 PM 29.9813 -95.3306 311° West  Level FlightAware Approximate
Sun 11:24:00 PM 29.9833 -95.3333 311° West  Level FlightAware Approximate
Sun 11:25:00 PM 29.9844 -95.3414 311° West  Level Estimated
Sun 11:26:00 PM 29.9833 -95.3333 311° West  Level FlightAware Approximate
Sun 11:27:00 PM 29.9844 -95.3414 311° West  Level Estimated

Login

Don't have an account? Register now (free) for customized features, flight alerts, and more!